Time;durP1;ratioP1;P1;durP2;ratioP2;P2;SDS_P1;SDS_P2;PMS_P1;PMS_P2;Temp;Humidity;BMP_temperature;BMP_pressure;BME280_temperature;BME280_humidity;BME280_pressure;Samples;Min_cycle;Max_cycle;Signal;HPM_P1;HPM_P2
2021/10/24 16:21:37;;;;;;;1.25;1.00;;;;;;;11.85;100.00;80354.56;4909984;27;20506;-87
2021/10/24 16:24:20;;;;;;;2.88;0.93;;;;;;;11.97;100.00;80363.91;4879070;28;20037;-86
2021/10/24 16:26:59;;;;;;;0.80;0.68;;;;;;;12.08;100.00;80379.22;4880397;28;20108;-88
2021/10/24 16:29:38;;;;;;;0.90;0.70;;;;;;;-145.06;100.00;60892.56;4879006;28;20028;-89
2021/10/24 16:32:19;;;;;;;1.10;0.80;;;;;;;12.25;100.00;60892.56;4879537;28;20410;-90
2021/10/24 16:34:57;;;;;;;0.70;0.70;;;;;;;12.27;100.00;80407.41;4875750;28;20116;-90
2021/10/24 16:37:38;;;;;;;0.60;0.60;;;;;;;12.31;100.00;80432.44;4878139;28;20021;-90
2021/10/24 16:40:17;;;;;;;0.93;0.70;;;;;;;12.32;100.00;80412.63;4879885;28;20859;-90
2021/10/24 16:42:56;;;;;;;1.20;0.80;;;;;;;12.33;100.00;80543.78;4889812;28;20801;-89
2021/10/24 16:45:36;;;;;;;1.27;0.80;;;;;;;12.34;100.00;60892.56;4879774;28;20371;-90
2021/10/24 16:48:15;;;;;;;1.02;0.70;;;;;;;-145.06;100.00;60892.56;4881117;28;20041;-91
2021/10/24 16:50:55;;;;;;;1.25;0.80;;;;;;;12.34;100.00;60892.56;4879334;28;20037;-90
2021/10/24 16:53:34;;;;;;;1.15;0.70;;;;;;;-145.06;100.00;60892.56;4891409;28;20036;-90
2021/10/24 16:56:14;;;;;;;1.00;0.90;;;;;;;12.27;100.00;80405.66;4878833;28;20112;-88
2021/10/24 16:58:53;;;;;;;1.15;0.80;;;;;;;12.22;100.00;80454.69;4874096;28;20470;-89
2021/10/24 17:01:33;;;;;;;1.85;0.90;;;;;;;12.18;100.00;80392.44;4873764;28;20037;-89
2021/10/24 17:04:12;;;;;;;1.90;1.02;;;;;;;12.14;100.00;60892.56;4880305;28;20114;-91
2021/10/24 17:06:51;;;;;;;1.40;1.08;;;;;;;12.09;100.00;80382.38;4879805;28;20040;-90
2021/10/24 17:09:31;;;;;;;1.60;1.02;;;;;;;12.03;100.00;60892.56;4879066;28;20127;-90
2021/10/24 17:12:10;;;;;;;1.00;0.80;;;;;;;11.97;100.00;80364.63;4877798;28;20355;-89
2021/10/24 17:14:50;;;;;;;1.23;0.70;;;;;;;11.92;100.00;80900.69;4877248;28;20032;-90
2021/10/24 17:17:30;;;;;;;1.58;0.77;;;;;;;11.89;100.00;80352.81;4876711;28;20045;-90
2021/10/24 17:20:09;;;;;;;0.90;0.90;;;;;;;11.85;100.00;60892.56;4876751;28;20528;-88
2021/10/24 17:22:52;;;;;;;1.88;0.93;;;;;;;11.82;100.00;80343.41;4878967;28;20037;-89
2021/10/24 17:25:31;;;;;;;2.50;0.80;;;;;;;11.79;100.00;104794.97;4878694;28;20040;-89
2021/10/24 17:28:10;;;;;;;1.15;0.75;;;;;;;11.77;100.00;60892.56;4878753;28;20032;-89
2021/10/24 17:30:49;;;;;;;0.93;0.68;;;;;;;11.74;100.00;80543.78;4877697;28;20029;-88
2021/10/24 17:33:29;;;;;;;0.80;0.70;;;;;;;11.69;100.00;60892.56;4860915;28;20040;-88
2021/10/24 17:36:07;;;;;;;1.23;0.60;;;;;;;11.65;100.00;80320.81;4866700;28;20366;-89
2021/10/24 17:38:46;;;;;;;1.20;0.70;;;;;;;11.61;100.00;80315.22;4873177;28;20033;-89
2021/10/24 17:41:26;;;;;;;0.95;0.73;;;;;;;11.57;100.00;60892.56;4881118;28;20029;-89
2021/10/24 17:44:05;;;;;;;2.25;0.80;;;;;;;11.52;100.00;60892.56;4867798;28;20413;-88
2021/10/24 17:46:44;;;;;;;0.63;0.60;;;;;;;11.46;100.00;60892.56;4863806;28;20036;-89
2021/10/24 17:49:23;;;;;;;1.15;0.85;;;;;;;11.41;100.00;60892.56;4865025;28;20772;-91
2021/10/24 17:52:03;;;;;;;0.80;0.70;;;;;;;11.34;100.00;60892.56;4849040;28;20359;-90
2021/10/24 17:54:42;;;;;;;1.10;0.80;;;;;;;11.28;100.00;80543.78;4866559;28;20033;-90
2021/10/24 17:57:21;;;;;;;0.93;0.90;;;;;;;11.21;100.00;60892.56;4866120;28;20025;-90
2021/10/24 18:00:00;;;;;;;0.80;0.73;;;;;;;-145.06;100.00;60892.56;4867763;28;20279;-90
2021/10/24 18:02:40;;;;;;;1.38;1.15;;;;;;;11.10;100.00;80244.34;4874988;28;20478;-90
2021/10/24 18:05:19;;;;;;;1.15;1.00;;;;;;;11.02;100.00;60892.56;4862799;28;20115;-90
2021/10/24 18:07:58;;;;;;;0.90;0.80;;;;;;;-145.06;100.00;60892.56;4861785;28;20036;-90
2021/10/24 18:10:38;;;;;;;1.00;0.90;;;;;;;10.89;100.00;60892.56;4864558;28;20025;-90
2021/10/24 18:13:17;;;;;;;1.10;0.90;;;;;;;11.01;100.00;60892.56;4862348;28;20072;-91
2021/10/24 18:15:56;;;;;;;;;;;;;;;10.75;100.00;60892.56;4869629;28;20350;-89
2021/10/24 18:18:37;;;;;;;1.05;0.82;;;;;;;10.69;100.00;80193.28;4866564;28;19912;-90
2021/10/24 18:21:18;;;;;;;0.93;0.70;;;;;;;10.62;100.00;60892.56;4879982;28;20024;-90
2021/10/24 18:24:04;;;;;;;0.85;0.80;;;;;;;10.54;100.00;60892.56;4863624;28;20032;-89
2021/10/24 18:26:44;;;;;;;1.40;1.02;;;;;;;10.47;100.00;104794.97;4868788;28;20352;-90
2021/10/24 18:29:23;;;;;;;1.70;1.02;;;;;;;10.42;100.00;60892.56;4866899;28;20037;-90
2021/10/24 18:32:04;;;;;;;1.20;1.00;;;;;;;10.36;100.00;60892.56;4866938;28;20037;-90
2021/10/24 18:34:44;;;;;;;1.25;0.93;;;;;;;10.30;100.00;80143.31;4867116;28;20029;-90
2021/10/24 18:37:24;;;;;;;1.70;1.05;;;;;;;10.25;100.00;60892.56;4865256;28;20037;-91
2021/10/24 18:40:05;;;;;;;1.50;1.13;;;;;;;10.20;100.00;80143.31;4865048;28;20107;-90
2021/10/24 18:42:44;;;;;;;1.13;0.85;;;;;;;10.14;100.00;60892.56;4863559;28;20335;-90
2021/10/24 18:45:23;;;;;;;1.20;0.93;;;;;;;10.07;100.00;60892.56;4865752;28;20033;-89
2021/10/24 18:48:02;;;;;;;1.60;1.02;;;;;;;10.03;100.00;81616.88;4866510;28;20586;-90
2021/10/24 18:50:44;;;;;;;1.00;0.90;;;;;;;9.96;100.00;60892.56;4864530;28;20387;-89
2021/10/24 18:53:26;;;;;;;1.48;1.00;;;;;;;9.90;100.00;60892.56;4864742;28;20624;-90
2021/10/24 18:56:06;;;;;;;1.88;1.00;;;;;;;9.86;100.00;60892.56;4857383;28;20052;-90
2021/10/24 18:58:45;;;;;;;1.65;1.20;;;;;;;9.83;100.00;60892.56;4862924;28;20139;-88
2021/10/24 19:01:24;;;;;;;0.98;0.82;;;;;;;9.74;100.00;60892.56;4862146;28;20033;-90
2021/10/24 19:04:04;;;;;;;1.02;0.82;;;;;;;9.70;100.00;60892.56;4861767;28;20144;-90
2021/10/24 19:06:42;;;;;;;1.30;0.82;;;;;;;9.64;100.00;60892.56;4865128;28;20036;-90
2021/10/24 19:09:21;;;;;;;1.90;1.10;;;;;;;9.61;100.00;60892.56;4864744;28;20060;-90
2021/10/24 19:12:02;;;;;;;1.13;0.93;;;;;;;10.68;100.00;60892.56;4864989;28;20029;-89
2021/10/24 19:14:42;;;;;;;1.13;0.95;;;;;;;9.49;100.00;80187.72;4873196;28;20021;-89
2021/10/24 19:17:21;;;;;;;1.27;0.93;;;;;;;9.45;100.00;60892.56;4885171;28;20356;-89
2021/10/24 19:20:00;;;;;;;1.43;1.00;;;;;;;9.71;100.00;60892.56;4884388;28;20029;-89
2021/10/24 19:22:39;;;;;;;1.27;1.08;;;;;;;9.33;100.00;60892.56;4865247;28;20028;-90
2021/10/24 19:25:18;;;;;;;2.30;1.10;;;;;;;9.30;100.00;60892.56;4864154;28;20049;-90
2021/10/24 19:27:58;;;;;;;1.58;1.10;;;;;;;9.25;100.00;60892.56;4863629;28;20267;-90
2021/10/24 19:30:37;;;;;;;2.33;1.33;;;;;;;9.21;100.00;60892.56;4877317;28;20394;-89
2021/10/24 19:33:16;;;;;;;1.97;1.20;;;;;;;9.18;100.00;60892.56;4865739;28;20024;-89
2021/10/24 19:35:56;;;;;;;1.80;1.23;;;;;;;9.14;100.00;60892.56;4862911;28;20367;-90
2021/10/24 19:38:36;;;;;;;;;;;;;;;9.38;100.00;60892.56;4863006;28;20040;-89
2021/10/24 19:41:15;;;;;;;1.63;1.00;;;;;;;9.04;100.00;60892.56;4864910;28;20231;-89
2021/10/24 19:43:55;;;;;;;1.90;1.17;;;;;;;21.08;100.00;60892.56;4864081;28;20037;-89
2021/10/24 19:46:35;;;;;;;1.70;1.20;;;;;;;8.93;100.00;60892.56;4862662;28;20033;-90
2021/10/24 19:49:14;;;;;;;1.88;1.42;;;;;;;8.90;100.00;60892.56;4863212;28;20339;-89
2021/10/24 19:51:54;;;;;;;1.85;1.35;;;;;;;8.85;100.00;60892.56;4863518;28;20347;-90
2021/10/24 19:54:33;;;;;;;2.00;1.30;;;;;;;8.83;100.00;60892.56;4863503;28;20029;-89
2021/10/24 19:57:13;;;;;;;1.27;1.17;;;;;;;8.78;100.00;79943.41;4864602;28;20060;-89
2021/10/24 19:59:52;;;;;;;;;;;;;;;9.38;100.00;60892.56;4863836;28;20479;-89
2021/10/24 20:02:31;;;;;;;0.90;0.80;;;;;;;-145.06;100.00;60892.56;4863532;28;19917;-89
2021/10/24 20:05:10;;;;;;;1.43;1.10;;;;;;;-145.06;100.00;60892.56;4865052;28;20064;-90
2021/10/24 20:07:50;;;;;;;1.77;1.20;;;;;;;8.62;100.00;60892.56;4858147;28;20029;-89
2021/10/24 20:10:30;;;;;;;1.30;0.95;;;;;;;8.54;100.00;81616.88;4862655;28;20029;-90
2021/10/24 20:13:08;;;;;;;;;;;;;;;8.73;100.00;60892.56;4864295;28;20029;-90
2021/10/24 20:15:48;;;;;;;2.30;1.00;;;;;;;10.68;100.00;60892.56;4862772;28;20144;-89
2021/10/24 20:18:27;;;;;;;1.85;1.10;;;;;;;9.38;100.00;60892.56;4865011;28;20498;-89
2021/10/24 20:21:07;;;;;;;1.33;1.00;;;;;;;9.38;100.00;60892.56;4865293;28;20041;-89
2021/10/24 20:23:46;;;;;;;2.63;1.33;;;;;;;8.26;100.00;60892.56;4857256;28;20032;-89
2021/10/24 20:26:25;;;;;;;1.52;1.17;;;;;;;8.21;100.00;81616.88;4865858;28;20033;-90
2021/10/24 20:29:04;;;;;;;1.42;1.02;;;;;;;10.68;100.00;60892.56;4863489;28;20041;-89
2021/10/24 20:31:43;;;;;;;1.77;1.02;;;;;;;8.10;100.00;60892.56;4867179;28;20032;-89
2021/10/24 20:34:22;;;;;;;1.40;1.00;;;;;;;8.06;100.00;60892.56;4865483;28;20049;-88
2021/10/24 20:37:02;;;;;;;1.57;1.00;;;;;;;10.68;100.00;60892.56;4865269;28;20028;-90
2021/10/24 20:39:40;;;;;;;0.80;0.80;;;;;;;7.97;100.00;60892.56;4864505;28;20276;-89
2021/10/24 20:42:20;;;;;;;1.20;0.88;;;;;;;8.08;100.00;60892.56;4861879;28;20267;-89
2021/10/24 20:44:58;;;;;;;1.50;1.10;;;;;;;-145.06;100.00;60892.56;4868038;28;20204;-90
2021/10/24 20:47:38;;;;;;;1.00;0.90;;;;;;;8.08;100.00;60892.56;4890837;28;20021;-89
2021/10/24 20:50:17;;;;;;;1.10;0.80;;;;;;;21.08;100.00;60892.56;4880479;28;20040;-90
2021/10/24 20:52:56;;;;;;;1.35;1.10;;;;;;;7.73;100.00;60892.56;4864571;28;20029;-89
2021/10/24 20:55:35;;;;;;;2.80;1.27;;;;;;;7.69;100.00;60892.56;4864975;28;20478;-91
2021/10/24 20:58:16;;;;;;;1.33;1.07;;;;;;;10.68;100.00;60892.56;4865944;28;20267;-90
2021/10/24 21:00:55;;;;;;;1.35;0.98;;;;;;;21.08;100.00;60892.56;4865550;28;20370;-89
2021/10/24 21:03:34;;;;;;;1.23;1.02;;;;;;;7.55;100.00;60892.56;4864793;28;20037;-89
2021/10/24 21:06:14;;;;;;;1.23;1.03;;;;;;;7.60;100.00;60892.56;4865313;28;20033;-89
2021/10/24 21:08:53;;;;;;;1.20;1.00;;;;;;;7.46;100.00;60892.56;4867315;28;20025;-90
2021/10/24 21:11:32;;;;;;;1.10;0.90;;;;;;;7.41;100.00;60892.56;4868191;28;20038;-88
2021/10/24 21:14:11;;;;;;;0.93;0.80;;;;;;;-145.06;100.00;60892.56;4869666;28;20036;-89
2021/10/24 21:16:50;;;;;;;1.40;1.15;;;;;;;-145.06;100.00;60892.56;4869175;28;20098;-90
2021/10/24 21:19:29;;;;;;;1.17;1.03;;;;;;;7.33;100.00;60892.56;4866139;28;20033;-90
2021/10/24 21:22:08;;;;;;;1.63;1.23;;;;;;;7.27;100.00;60892.56;4868530;28;20706;-89
2021/10/24 21:24:47;;;;;;;1.23;1.02;;;;;;;7.22;100.00;60892.56;4867562;28;20111;-90
2021/10/24 21:27:26;;;;;;;1.95;1.00;;;;;;;7.16;100.00;60892.56;4866159;28;20021;-89
2021/10/24 21:30:06;;;;;;;1.63;1.05;;;;;;;7.11;100.00;60892.56;4870907;28;20352;-89
2021/10/24 21:32:45;;;;;;;;;;;;;;;21.08;100.00;60892.56;4869920;28;20037;-89
2021/10/24 21:35:24;;;;;;;1.10;0.90;;;;;;;187.52;100.00;60892.56;4867386;28;20281;-90
2021/10/24 21:38:03;;;;;;;1.27;0.90;;;;;;;-145.06;100.00;60892.56;4880128;28;20029;-90
2021/10/24 21:40:43;;;;;;;1.03;0.93;;;;;;;7.03;100.00;60892.56;4869138;28;20033;-90
2021/10/24 21:43:22;;;;;;;1.33;0.93;;;;;;;-145.06;100.00;60892.56;4867548;28;20375;-89
2021/10/24 21:46:02;;;;;;;1.73;1.20;;;;;;;8.08;100.00;60892.56;4865145;28;20024;-89
2021/10/24 21:48:41;;;;;;;1.45;1.00;;;;;;;-145.06;100.00;60892.56;4866157;28;20025;-90
2021/10/24 21:51:20;;;;;;;1.42;1.00;;;;;;;-145.06;100.00;60892.56;4867498;28;20029;-89
2021/10/24 21:53:59;;;;;;;1.10;0.87;;;;;;;6.82;100.00;60892.56;4864486;28;20060;-90
2021/10/24 21:56:39;;;;;;;1.13;1.00;;;;;;;7.44;100.00;60892.56;4870170;28;20276;-89
2021/10/24 21:59:18;;;;;;;1.25;1.10;;;;;;;21.08;100.00;60892.56;4866045;28;20116;-90
2021/10/24 22:02:02;;;;;;;2.30;1.37;;;;;;;8.08;100.00;60892.56;4865659;28;20032;-89
2021/10/24 22:04:42;;;;;;;1.08;0.90;;;;;;;6.72;100.00;60892.56;4870931;28;20605;-90
2021/10/24 22:07:20;;;;;;;1.90;0.90;;;;;;;10.68;100.00;60892.56;4872074;28;20529;-89
2021/10/24 22:09:59;;;;;;;1.00;0.83;;;;;;;6.65;100.00;60892.56;4878953;28;20260;-89
2021/10/24 22:12:39;;;;;;;1.70;1.10;;;;;;;6.63;100.00;60892.56;4893544;28;20272;-90
2021/10/24 22:15:20;;;;;;;1.10;0.90;;;;;;;-145.06;100.00;60892.56;4870143;28;20037;-90
2021/10/24 22:17:59;;;;;;;1.77;0.95;;;;;;;187.52;100.00;60892.56;4865350;28;20061;-90
2021/10/24 22:20:39;;;;;;;1.20;1.10;;;;;;;-145.06;100.00;60892.56;4864386;28;20037;-90
2021/10/24 22:23:18;;;;;;;0.83;0.80;;;;;;;-145.06;100.00;60892.56;4862230;28;20037;-90
2021/10/24 22:25:59;;;;;;;1.77;1.17;;;;;;;-145.06;100.00;60892.56;4865547;28;20028;-90
2021/10/24 22:28:38;;;;;;;1.30;1.10;;;;;;;6.46;100.00;60892.56;4868387;28;20029;-89
2021/10/24 22:31:17;;;;;;;2.75;1.10;;;;;;;-145.06;100.00;60892.56;4869056;28;20112;-90
2021/10/24 22:33:56;;;;;;;1.37;1.10;;;;;;;-145.06;100.00;60892.56;4868060;28;20351;-89
2021/10/24 22:36:36;;;;;;;1.00;0.87;;;;;;;6.33;100.00;60892.56;4868794;28;20068;-90
2021/10/24 22:39:16;;;;;;;2.28;1.33;;;;;;;10.68;100.00;60892.56;4882155;28;20264;-89
2021/10/24 22:41:55;;;;;;;2.53;1.10;;;;;;;-145.06;100.00;60892.56;4867011;28;20431;-90
2021/10/24 22:44:34;;;;;;;1.50;1.30;;;;;;;6.24;100.00;60892.56;4868758;28;20036;-90
2021/10/24 22:47:13;;;;;;;1.25;1.00;;;;;;;-145.06;100.00;60892.56;4865590;28;20033;-90
2021/10/24 22:49:52;;;;;;;1.70;1.50;;;;;;;6.17;100.00;60892.56;4867612;28;20028;-91
2021/10/24 22:52:32;;;;;;;1.30;1.07;;;;;;;6.13;100.00;60892.56;4866415;28;20268;-89
2021/10/24 22:55:11;;;;;;;1.75;1.27;;;;;;;21.08;100.00;60892.56;4865092;28;20033;-90
2021/10/24 22:57:50;;;;;;;2.35;1.50;;;;;;;6.06;100.00;60892.56;4863059;28;20037;-90
2021/10/24 23:00:29;;;;;;;1.88;1.40;;;;;;;-145.06;100.00;60892.56;4863319;28;20096;-90
2021/10/24 23:03:09;;;;;;;1.20;1.10;;;;;;;-145.06;100.00;60892.56;4865726;28;20454;-91
2021/10/24 23:05:49;;;;;;;1.27;1.10;;;;;;;-145.06;100.00;60892.56;4864337;28;20279;-89
2021/10/24 23:08:28;;;;;;;1.40;1.08;;;;;;;-145.06;100.00;60892.56;4865587;28;20029;-90
2021/10/24 23:11:07;;;;;;;1.52;1.00;;;;;;;5.87;100.00;60892.56;4866812;28;20108;-90
2021/10/24 23:13:46;;;;;;;1.85;1.15;;;;;;;-145.06;100.00;60892.56;4863941;28;20029;-89
2021/10/24 23:16:25;;;;;;;1.35;1.10;;;;;;;-145.06;100.00;60892.56;4863978;28;20474;-89
2021/10/24 23:19:04;;;;;;;1.60;1.30;;;;;;;187.52;100.00;60892.56;4866484;28;20041;-89
2021/10/24 23:21:43;;;;;;;2.33;1.17;;;;;;;-145.06;100.00;60892.56;4864581;28;20029;-90
2021/10/24 23:24:23;;;;;;;2.10;1.60;;;;;;;5.66;100.00;81616.88;4866946;28;20041;-90
2021/10/24 23:27:02;;;;;;;1.50;1.00;;;;;;;-145.06;100.00;60892.56;4864640;28;20032;-90
2021/10/24 23:29:41;;;;;;;1.30;0.98;;;;;;;8.08;100.00;60892.56;4864483;28;20486;-90
2021/10/24 23:32:20;;;;;;;2.00;1.47;;;;;;;-145.06;100.00;60892.56;4881860;28;20622;-89
2021/10/24 23:34:59;;;;;;;2.23;1.20;;;;;;;-145.06;100.00;60892.56;4887156;28;20259;-90
2021/10/24 23:37:38;;;;;;;1.90;1.35;;;;;;;5.52;100.00;60892.56;4877670;28;20029;-90
2021/10/24 23:40:17;;;;;;;1.25;1.00;;;;;;;-145.06;100.00;60892.56;4865601;28;20029;-90
2021/10/24 23:42:56;;;;;;;1.35;0.90;;;;;;;5.47;100.00;60892.56;4864614;28;20028;-89
2021/10/24 23:45:35;;;;;;;2.35;1.50;;;;;;;5.47;100.00;60892.56;4871214;28;20065;-89
2021/10/24 23:48:15;;;;;;;1.52;1.15;;;;;;;-145.06;100.00;60892.56;4868020;28;20068;-89
2021/10/24 23:50:53;;;;;;;1.30;1.20;;;;;;;-145.06;100.00;60892.56;4864168;28;20479;-89
2021/10/24 23:53:33;;;;;;;1.23;1.13;;;;;;;5.41;100.00;60892.56;4873898;28;20029;-90
2021/10/24 23:56:12;;;;;;;1.48;1.17;;;;;;;5.40;100.00;60892.56;4871484;28;20344;-90
2021/10/24 23:58:51;;;;;;;1.80;1.37;;;;;;;187.52;100.00;60892.56;4861963;28;20072;-89
